createdAt,value
2023-05-09T00:01:08.347Z,9.15
2023-05-09T00:03:36.293Z,9.02
2023-05-09T00:06:04.369Z,9.10
2023-05-09T00:08:32.262Z,9.07
2023-05-09T00:11:00.343Z,9.63
2023-05-09T00:13:29.956Z,8.73
2023-05-09T00:15:58.489Z,8.95
2023-05-09T00:18:26.378Z,8.90
2023-05-09T00:20:54.300Z,8.45
2023-05-09T00:23:22.176Z,9.02
2023-05-09T00:25:50.078Z,8.60
2023-05-09T00:28:17.950Z,9.32
2023-05-09T00:30:47.301Z,9.52
2023-05-09T00:33:15.279Z,9.50
2023-05-09T00:35:43.154Z,9.13
2023-05-09T00:38:11.043Z,9.15
2023-05-09T00:40:39.017Z,9.18
2023-05-09T00:43:06.973Z,9.48
2023-05-09T00:45:34.953Z,8.55
2023-05-09T00:48:04.594Z,8.88
2023-05-09T00:50:32.717Z,8.88
2023-05-09T00:53:00.914Z,8.32
2023-05-09T00:55:28.859Z,7.97
2023-05-09T00:57:56.774Z,8.30
2023-05-09T01:00:25.367Z,8.23
2023-05-09T01:02:55.116Z,7.80
2023-05-09T01:05:27.143Z,7.90
2023-05-09T01:07:58.628Z,7.45
2023-05-09T01:10:33.184Z,7.70
2023-05-09T01:13:06.139Z,8.02
2023-05-09T01:15:38.161Z,8.38
2023-05-09T01:18:10.899Z,7.35
2023-05-09T01:20:45.963Z,7.70
2023-05-09T01:23:41.471Z,7.75
2023-05-09T01:26:14.860Z,7.60
2023-05-09T01:29:03.747Z,8.18
2023-05-09T01:31:34.631Z,7.80
2023-05-09T01:34:03.942Z,6.97
2023-05-09T01:36:33.931Z,8.43
2023-05-09T01:39:04.316Z,6.78
2023-05-09T01:41:33.410Z,7.10
2023-05-09T01:44:03.517Z,7.57
2023-05-09T01:46:33.216Z,7.43
2023-05-09T01:49:01.775Z,7.25
2023-05-09T01:51:30.090Z,6.90
2023-05-09T01:53:58.304Z,7.28
2023-05-09T01:56:27.340Z,7.80
2023-05-09T01:58:57.085Z,7.70
2023-05-09T02:01:26.255Z,7.47
2023-05-09T02:03:55.635Z,6.90
2023-05-09T02:06:24.700Z,6.80
2023-05-09T02:08:52.668Z,7.03
2023-05-09T02:11:21.128Z,6.88
2023-05-09T02:13:49.148Z,7.57
2023-05-09T02:16:17.324Z,7.43
2023-05-09T02:18:45.333Z,7.03
2023-05-09T02:21:14.718Z,6.68
2023-05-09T02:23:42.709Z,7.30
2023-05-09T02:26:10.740Z,6.28
2023-05-09T02:28:39.529Z,6.60
2023-05-09T02:31:07.773Z,7.00
2023-05-09T02:33:38.247Z,6.55
2023-05-09T02:36:07.206Z,6.97
2023-05-09T02:38:36.566Z,7.00
2023-05-09T02:41:04.514Z,6.88
2023-05-09T02:43:32.382Z,6.10
2023-05-09T02:46:00.334Z,6.50
2023-05-09T02:48:28.249Z,6.05
2023-05-09T02:50:57.139Z,6.53
2023-05-09T02:53:24.993Z,6.75
2023-05-09T02:55:54.406Z,6.35
2023-05-09T02:58:22.351Z,6.10
2023-05-09T03:00:50.204Z,6.50
2023-05-09T03:03:19.196Z,6.63
2023-05-09T03:05:47.212Z,6.28
2023-05-09T03:08:15.078Z,5.82
2023-05-09T03:10:43.060Z,6.68
2023-05-09T03:13:12.352Z,6.47
2023-05-09T03:15:40.372Z,6.82
2023-05-09T03:18:08.351Z,6.97
2023-05-09T03:20:36.330Z,6.60
2023-05-09T03:23:04.128Z,6.68
2023-05-09T03:25:32.421Z,7.25
2023-05-09T03:28:00.267Z,7.45
2023-05-09T03:30:29.546Z,7.30
2023-05-09T03:32:57.451Z,7.07
2023-05-09T03:35:25.423Z,7.43
2023-05-09T03:37:53.275Z,7.45
2023-05-09T03:40:21.186Z,7.93
2023-05-09T03:42:49.117Z,7.80
2023-05-09T03:45:17.118Z,7.30
2023-05-09T03:47:46.588Z,7.53
2023-05-09T03:50:14.685Z,7.28
2023-05-09T03:52:42.558Z,8.60
2023-05-09T03:55:11.162Z,7.80
2023-05-09T03:57:39.115Z,8.30
2023-05-09T04:00:10.305Z,8.00
2023-05-09T04:02:38.264Z,8.38
2023-05-09T04:05:08.217Z,7.78
2023-05-09T04:07:36.326Z,7.90
2023-05-09T04:10:04.212Z,7.55
2023-05-09T04:12:32.079Z,7.65
2023-05-09T04:15:00.001Z,7.78
2023-05-09T04:17:28.066Z,7.80
2023-05-09T04:19:56.290Z,7.47
2023-05-09T04:22:25.778Z,7.75
2023-05-09T04:24:53.684Z,7.90
2023-05-09T04:27:21.777Z,8.75
2023-05-09T04:29:49.837Z,8.55
2023-05-09T04:32:17.790Z,8.68
2023-05-09T04:34:45.691Z,8.10
2023-05-09T04:37:13.867Z,8.20
2023-05-09T04:39:43.456Z,8.32
2023-05-09T04:42:11.637Z,8.80
2023-05-09T04:44:39.585Z,8.63
2023-05-09T04:47:07.456Z,8.45
2023-05-09T04:49:35.403Z,7.95
2023-05-09T04:52:03.290Z,8.85
2023-05-09T04:54:31.279Z,8.10
2023-05-09T04:57:13.782Z,8.68
2023-05-09T04:59:45.514Z,8.85
2023-05-09T05:02:13.973Z,8.75
2023-05-09T05:04:41.840Z,9.40
2023-05-09T05:07:09.768Z,9.82
2023-05-09T05:09:37.671Z,9.30
2023-05-09T05:12:09.783Z,9.20
2023-05-09T05:14:38.012Z,8.68
2023-05-09T05:17:05.915Z,8.73
2023-05-09T05:19:34.138Z,8.75
2023-05-09T05:22:02.078Z,9.05
2023-05-09T05:24:30.059Z,8.55
2023-05-09T05:26:57.891Z,8.00
2023-05-09T05:29:27.147Z,8.15
2023-05-09T05:31:55.088Z,7.85
2023-05-09T05:34:23.026Z,7.57
2023-05-09T05:36:51.238Z,7.75
2023-05-09T05:39:19.225Z,7.47
2023-05-09T05:41:47.008Z,8.20
2023-05-09T05:44:14.901Z,7.18
2023-05-09T05:46:44.118Z,7.90
2023-05-09T05:49:11.970Z,8.00
2023-05-09T05:51:39.859Z,7.18
2023-05-09T05:54:07.793Z,7.40
2023-05-09T05:56:35.628Z,7.07
2023-05-09T05:59:03.627Z,7.18
2023-05-09T06:01:31.550Z,7.47
2023-05-09T06:04:00.925Z,7.05
2023-05-09T06:06:28.994Z,7.25
2023-05-09T06:08:57.438Z,8.23
2023-05-09T06:11:25.347Z,7.22
2023-05-09T06:13:53.320Z,7.38
2023-05-09T06:16:21.581Z,7.53
2023-05-09T06:18:49.696Z,7.70
2023-05-09T06:21:19.033Z,7.20
2023-05-09T06:24:05.105Z,7.65
2023-05-09T06:26:34.856Z,8.35
2023-05-09T06:29:02.838Z,7.70
2023-05-09T06:31:30.835Z,8.43
2023-05-09T06:33:58.831Z,7.88
2023-05-09T06:36:28.022Z,7.90
2023-05-09T06:38:55.911Z,7.28
2023-05-09T06:41:23.783Z,7.43
2023-05-09T06:43:51.685Z,7.35
2023-05-09T06:46:19.567Z,7.40
2023-05-09T06:48:47.486Z,6.80
2023-05-09T06:51:15.520Z,6.68
2023-05-09T06:53:44.699Z,6.82
2023-05-09T06:56:13.192Z,6.25
2023-05-09T06:58:41.230Z,5.90
2023-05-09T07:01:09.165Z,6.50
2023-05-09T07:03:37.114Z,5.68
2023-05-09T07:06:05.361Z,6.20
2023-05-09T07:08:33.467Z,6.53
2023-05-09T07:11:02.676Z,6.20
2023-05-09T07:13:30.568Z,6.18
2023-05-09T07:15:58.764Z,6.15
2023-05-09T07:18:26.734Z,5.85
2023-05-09T07:20:54.644Z,5.90
2023-05-09T07:23:22.502Z,5.20
2023-05-09T07:25:50.415Z,5.90
2023-05-09T07:28:19.656Z,5.53
2023-05-09T07:30:47.540Z,5.65
2023-05-09T07:33:15.467Z,5.55
2023-05-09T07:35:43.291Z,5.43
2023-05-09T07:38:11.221Z,5.47
2023-05-09T07:40:39.037Z,5.70
2023-05-09T07:43:06.964Z,5.57
2023-05-09T07:45:36.466Z,5.28
2023-05-09T07:48:04.730Z,5.43
2023-05-09T07:50:32.643Z,5.68
2023-05-09T07:53:01.053Z,5.07
2023-05-09T07:55:28.954Z,5.32
2023-05-09T07:57:57.128Z,5.20
2023-05-09T08:00:25.582Z,5.25
2023-05-09T08:02:55.122Z,5.47
2023-05-09T08:05:23.112Z,5.35
2023-05-09T08:07:51.004Z,5.80
2023-05-09T08:10:18.931Z,5.72
2023-05-09T08:12:46.915Z,5.68
2023-05-09T08:15:14.953Z,5.38
2023-05-09T08:17:43.258Z,5.93
2023-05-09T08:20:13.893Z,5.72
2023-05-09T08:22:42.100Z,5.57
2023-05-09T08:25:10.409Z,5.60
2023-05-09T08:27:38.325Z,5.45
2023-05-09T08:30:07.623Z,6.43
2023-05-09T08:32:35.533Z,5.78
2023-05-09T08:35:03.848Z,6.20
2023-05-09T08:37:33.066Z,6.03
2023-05-09T08:40:01.085Z,6.03
2023-05-09T08:42:29.536Z,6.00
2023-05-09T08:44:57.496Z,6.30
2023-05-09T08:47:25.619Z,6.32
2023-05-09T08:49:53.996Z,7.35
2023-05-09T08:52:22.088Z,7.07
2023-05-09T08:54:53.334Z,6.25
2023-05-09T08:57:21.384Z,6.50
2023-05-09T08:59:50.538Z,7.50
2023-05-09T09:02:18.614Z,7.60
2023-05-09T09:04:46.935Z,8.10
2023-05-09T09:07:16.197Z,8.13
2023-05-09T09:09:46.090Z,7.20
2023-05-09T09:12:16.998Z,7.10
2023-05-09T09:14:50.394Z,6.30
2023-05-09T09:17:20.949Z,6.65
2023-05-09T09:19:51.156Z,6.93
2023-05-09T09:22:20.790Z,6.72
2023-05-09T09:24:48.771Z,6.68
2023-05-09T09:27:19.333Z,6.28
2023-05-09T09:29:47.195Z,6.68
2023-05-09T09:32:15.113Z,6.13
2023-05-09T09:34:43.022Z,6.07
2023-05-09T09:37:28.528Z,5.60
2023-05-09T09:39:56.808Z,6.15
2023-05-09T09:42:26.081Z,6.05
2023-05-09T09:44:57.880Z,6.32
2023-05-09T09:47:32.620Z,6.22
2023-05-09T09:50:11.127Z,6.07
2023-05-09T09:52:43.333Z,6.03
2023-05-09T09:55:11.272Z,6.18
2023-05-09T09:57:43.999Z,5.55
2023-05-09T10:00:13.205Z,4.70
2023-05-09T10:02:49.242Z,3.67
2023-05-09T10:05:21.712Z,3.50
2023-05-09T10:07:55.399Z,3.97
2023-05-09T10:10:23.905Z,3.13
2023-05-09T10:12:54.991Z,3.70
2023-05-09T10:15:23.360Z,3.33
2023-05-09T10:17:55.498Z,3.92
2023-05-09T10:20:23.770Z,3.80
2023-05-09T10:22:52.840Z,4.20
2023-05-09T10:25:21.749Z,4.30
2023-05-09T10:27:50.476Z,4.50
2023-05-09T10:30:20.874Z,4.57
2023-05-09T10:32:54.544Z,4.55
2023-05-09T10:35:27.361Z,4.68
2023-05-09T10:37:57.348Z,4.47
2023-05-09T10:40:25.607Z,5.15
2023-05-09T10:42:53.503Z,5.50
2023-05-09T10:45:23.216Z,5.15
2023-05-09T10:47:52.986Z,5.82
2023-05-09T10:50:22.510Z,5.13
2023-05-09T10:53:11.087Z,5.72
2023-05-09T10:55:40.108Z,5.97
2023-05-09T10:58:21.828Z,6.20
2023-05-09T11:00:54.665Z,6.43
2023-05-09T11:03:24.759Z,5.90
2023-05-09T11:05:53.723Z,5.28
2023-05-09T11:08:26.896Z,4.40
2023-05-09T11:10:55.981Z,4.32
2023-05-09T11:13:25.503Z,3.00
2023-05-09T11:16:10.470Z,2.80
2023-05-09T11:18:52.336Z,2.45
2023-05-09T11:21:21.588Z,2.72
2023-05-09T11:23:50.688Z,2.53
2023-05-09T11:26:23.587Z,2.00
2023-05-09T11:28:56.760Z,2.40
2023-05-09T11:31:26.002Z,2.38
2023-05-09T11:34:04.751Z,2.33
2023-05-09T11:36:33.700Z,2.40
2023-05-09T11:39:03.897Z,2.22
2023-05-09T11:41:32.323Z,2.33
2023-05-09T11:44:01.178Z,2.92
2023-05-09T11:46:30.664Z,2.45
2023-05-09T11:49:00.156Z,2.58
2023-05-09T11:51:28.909Z,2.42
2023-05-09T11:53:56.781Z,2.30
2023-05-09T11:56:24.646Z,2.53
2023-05-09T11:58:53.258Z,2.88
2023-05-09T12:01:21.246Z,2.80
2023-05-09T12:03:53.639Z,2.60
2023-05-09T12:06:21.886Z,3.40
2023-05-09T12:08:49.825Z,3.28
2023-05-09T12:11:18.499Z,3.20
2023-05-09T12:13:48.395Z,2.40
2023-05-09T12:16:17.221Z,2.15
2023-05-09T12:18:47.148Z,1.70
2023-05-09T12:21:16.556Z,1.42
2023-05-09T12:23:44.654Z,1.73
2023-05-09T12:26:14.791Z,2.10
2023-05-09T12:28:42.939Z,2.20
2023-05-09T12:31:10.985Z,3.00
2023-05-09T12:33:39.776Z,3.33
2023-05-09T12:36:11.070Z,4.05
2023-05-09T12:38:40.782Z,3.83
2023-05-09T12:41:18.740Z,4.28
2023-05-09T12:43:51.201Z,4.18
2023-05-09T12:46:20.020Z,5.72
2023-05-09T12:48:49.311Z,4.93
2023-05-09T12:51:20.079Z,4.93
2023-05-09T12:53:49.658Z,4.47
2023-05-09T12:56:18.776Z,4.50
2023-05-09T12:58:51.117Z,4.18
2023-05-09T13:01:19.479Z,3.72
2023-05-09T13:03:52.706Z,3.72
2023-05-09T13:06:21.194Z,3.47
2023-05-09T13:09:01.531Z,2.90
2023-05-09T13:11:30.657Z,2.55
2023-05-09T13:13:58.893Z,2.03
2023-05-09T13:16:26.946Z,2.33
2023-05-09T13:18:54.885Z,2.10
2023-05-09T13:21:22.787Z,2.03
2023-05-09T13:23:51.276Z,2.00
2023-05-09T13:26:21.150Z,1.83
2023-05-09T13:28:49.228Z,1.30
2023-05-09T13:31:17.253Z,1.40
2023-05-09T13:33:45.290Z,1.50
2023-05-09T13:36:13.211Z,1.45
2023-05-09T13:38:42.151Z,1.67
2023-05-09T13:41:10.760Z,1.40
2023-05-09T13:43:40.796Z,1.17
2023-05-09T13:46:08.751Z,1.35
2023-05-09T13:48:36.791Z,1.58
2023-05-09T13:51:06.310Z,1.52
2023-05-09T13:53:34.534Z,1.50
2023-05-09T13:56:03.115Z,1.40
2023-05-09T13:58:30.981Z,1.30
2023-05-09T14:01:00.202Z,1.17
2023-05-09T14:03:28.243Z,1.42
2023-05-09T14:05:56.144Z,0.90
2023-05-09T14:08:24.484Z,1.27
2023-05-09T14:10:52.320Z,1.20
2023-05-09T14:13:20.372Z,1.17
2023-05-09T14:15:48.348Z,1.00
2023-05-09T14:18:20.211Z,1.48
2023-05-09T14:20:49.147Z,1.25
2023-05-09T14:23:17.155Z,1.33
2023-05-09T14:25:45.288Z,1.00
2023-05-09T14:28:13.184Z,0.90
2023-05-09T14:30:40.987Z,1.13
2023-05-09T14:33:08.899Z,1.17
2023-05-09T14:35:41.075Z,1.15
2023-05-09T14:38:09.440Z,1.10
2023-05-09T14:40:37.351Z,1.08
2023-05-09T14:43:05.936Z,1.15
2023-05-09T14:45:34.363Z,0.90
2023-05-09T14:48:03.359Z,1.13
2023-05-09T14:50:31.408Z,1.00
2023-05-09T14:53:01.065Z,1.02
2023-05-09T14:55:31.078Z,0.98
2023-05-09T14:57:58.995Z,0.60
2023-05-09T15:00:28.504Z,0.65
2023-05-09T15:02:56.916Z,1.20
2023-05-09T15:05:25.114Z,0.65
2023-05-09T15:07:53.094Z,0.80
2023-05-09T15:10:22.625Z,0.88
2023-05-09T15:12:50.772Z,0.90
2023-05-09T15:15:20.564Z,1.00
2023-05-09T15:17:48.486Z,0.90
2023-05-09T15:20:17.655Z,0.95
2023-05-09T15:22:46.973Z,1.10
2023-05-09T15:25:15.217Z,0.77
2023-05-09T15:27:44.566Z,0.95
2023-05-09T15:30:13.354Z,1.00
2023-05-09T15:32:41.511Z,0.85
2023-05-09T15:35:10.062Z,0.90
2023-05-09T15:37:38.456Z,1.00
2023-05-09T15:40:07.912Z,0.98
2023-05-09T15:42:36.319Z,0.85
2023-05-09T15:45:06.504Z,1.10
2023-05-09T15:47:34.587Z,1.20
2023-05-09T15:50:02.730Z,1.50
2023-05-09T15:52:30.791Z,1.88
2023-05-09T15:54:58.926Z,1.40
2023-05-09T15:57:26.949Z,2.38
2023-05-09T15:59:56.022Z,2.10
2023-05-09T16:02:25.499Z,1.85
2023-05-09T16:04:53.424Z,1.50
2023-05-09T16:07:21.967Z,2.10
2023-05-09T16:09:50.036Z,1.80
2023-05-09T16:12:17.989Z,2.05
2023-05-09T16:14:45.896Z,2.03
2023-05-09T16:17:14.002Z,1.80
2023-05-09T16:19:43.232Z,1.92
2023-05-09T16:22:11.115Z,1.98
2023-05-09T16:24:38.965Z,2.28
2023-05-09T16:27:06.871Z,2.17
2023-05-09T16:29:34.735Z,3.05
2023-05-09T16:32:02.650Z,2.53
2023-05-09T16:34:30.606Z,2.33
2023-05-09T16:37:00.062Z,2.70
2023-05-09T16:39:28.389Z,2.63
2023-05-09T16:41:56.512Z,2.78
2023-05-09T16:44:25.545Z,3.58
2023-05-09T16:46:53.697Z,4.50
2023-05-09T16:49:21.695Z,4.55
2023-05-09T16:51:49.627Z,4.43
2023-05-09T16:54:18.930Z,4.50
2023-05-09T16:56:46.899Z,3.67
2023-05-09T16:59:15.076Z,3.45
2023-05-09T17:01:43.329Z,3.60
2023-05-09T17:04:11.365Z,3.53
2023-05-09T17:06:39.315Z,3.50
2023-05-09T17:09:07.599Z,3.17
2023-05-09T17:11:37.021Z,3.50
2023-05-09T17:14:04.957Z,3.72
2023-05-09T17:16:33.445Z,4.05
2023-05-09T17:19:02.153Z,3.60
2023-05-09T17:21:30.967Z,3.75
2023-05-09T17:23:58.883Z,4.28
2023-05-09T17:26:26.974Z,4.10
2023-05-09T17:28:58.753Z,4.20
2023-05-09T17:31:26.892Z,5.43
2023-05-09T17:33:54.825Z,6.00
2023-05-09T17:36:22.779Z,4.57
2023-05-09T17:38:50.693Z,5.15
2023-05-09T17:41:18.568Z,4.72
2023-05-09T17:43:47.143Z,4.95
2023-05-09T17:46:16.920Z,5.25
2023-05-09T17:48:44.991Z,5.35
2023-05-09T17:51:12.942Z,5.68
2023-05-09T17:53:41.084Z,5.57
2023-05-09T17:56:09.135Z,6.18
2023-05-09T17:58:37.177Z,7.75
2023-05-09T18:01:05.718Z,6.70
2023-05-09T18:03:35.173Z,6.72
2023-05-09T18:06:04.529Z,5.82
2023-05-09T18:08:32.496Z,6.97
2023-05-09T18:11:00.384Z,6.35
2023-05-09T18:13:28.408Z,7.18
2023-05-09T18:15:59.669Z,6.13
2023-05-09T18:18:28.380Z,6.65
2023-05-09T18:20:57.893Z,6.57
2023-05-09T18:23:26.141Z,6.40
2023-05-09T18:25:55.030Z,6.93
2023-05-09T18:28:25.431Z,7.32
2023-05-09T18:30:54.441Z,7.28
2023-05-09T18:33:23.357Z,7.57
2023-05-09T18:35:51.575Z,7.90
2023-05-09T18:38:20.867Z,7.72
2023-05-09T18:40:49.742Z,7.50
2023-05-09T18:43:18.248Z,8.00
2023-05-09T18:45:48.004Z,8.20
2023-05-09T18:48:16.420Z,9.10
2023-05-09T18:50:44.788Z,9.10
2023-05-09T18:53:12.628Z,9.27
2023-05-09T18:55:42.803Z,9.52
2023-05-09T18:58:10.720Z,10.20
2023-05-09T19:00:39.437Z,9.10
2023-05-09T19:03:07.582Z,9.18
2023-05-09T19:05:35.624Z,10.55
2023-05-09T19:08:04.138Z,9.07
2023-05-09T19:10:33.693Z,10.15
2023-05-09T19:13:03.080Z,10.13
2023-05-09T19:15:31.030Z,9.55
2023-05-09T19:17:58.945Z,8.40
2023-05-09T19:20:26.961Z,7.95
2023-05-09T19:22:54.774Z,6.93
2023-05-09T19:25:22.753Z,6.88
2023-05-09T19:27:52.565Z,6.35
2023-05-09T19:30:22.138Z,6.40
2023-05-09T19:32:50.095Z,6.20
2023-05-09T19:35:18.007Z,5.90
2023-05-09T19:37:45.875Z,6.30
2023-05-09T19:40:14.292Z,6.15
2023-05-09T19:42:42.770Z,5.90
2023-05-09T19:45:11.796Z,5.82
2023-05-09T19:47:41.614Z,6.07
2023-05-09T19:50:10.441Z,5.90
2023-05-09T19:52:38.419Z,5.85
2023-05-09T19:55:07.175Z,5.72
2023-05-09T19:57:34.978Z,5.55
2023-05-09T20:00:03.270Z,6.15
2023-05-09T20:02:31.218Z,6.40
2023-05-09T20:05:00.800Z,5.93
2023-05-09T20:07:29.672Z,6.40
2023-05-09T20:09:57.571Z,6.70
2023-05-09T20:12:26.369Z,6.68
2023-05-09T20:14:55.243Z,7.38
2023-05-09T20:17:23.177Z,6.50
2023-05-09T20:19:51.249Z,6.97
2023-05-09T20:22:20.735Z,6.90
2023-05-09T20:24:48.642Z,7.25
2023-05-09T20:27:16.538Z,7.18
2023-05-09T20:29:44.507Z,6.97
2023-05-09T20:32:12.504Z,6.50
2023-05-09T20:34:40.436Z,6.50
2023-05-09T20:37:08.988Z,5.20
2023-05-09T20:39:38.356Z,5.15
2023-05-09T20:42:06.665Z,5.13
2023-05-09T20:44:35.122Z,5.32
2023-05-09T20:47:03.005Z,5.20
2023-05-09T20:49:30.920Z,5.38
2023-05-09T20:51:59.037Z,5.47
2023-05-09T20:54:27.013Z,5.57
2023-05-09T20:56:56.244Z,5.22
2023-05-09T20:59:24.157Z,5.60
2023-05-09T21:01:52.706Z,5.10
2023-05-09T21:04:21.215Z,5.20
2023-05-09T21:06:49.260Z,5.95
2023-05-09T21:09:17.164Z,5.97
2023-05-09T21:11:45.825Z,5.68
2023-05-09T21:14:15.236Z,5.95
2023-05-09T21:16:44.127Z,6.15
2023-05-09T21:19:12.086Z,6.25
2023-05-09T21:21:40.058Z,6.95
2023-05-09T21:24:09.717Z,6.25
2023-05-09T21:26:37.791Z,7.10
2023-05-09T21:29:06.536Z,6.95
2023-05-09T21:31:38.337Z,7.38
2023-05-09T21:34:09.962Z,7.68
2023-05-09T21:36:38.640Z,7.93
2023-05-09T21:39:09.086Z,7.78
2023-05-09T21:41:37.432Z,8.02
2023-05-09T21:44:05.688Z,8.38
2023-05-09T21:46:33.959Z,7.40
2023-05-09T21:49:03.399Z,8.23
2023-05-09T21:51:31.577Z,8.10
2023-05-09T21:53:59.473Z,7.70
2023-05-09T21:56:27.359Z,8.35
2023-05-09T21:58:55.396Z,8.00
2023-05-09T22:01:23.408Z,7.55
2023-05-09T22:03:51.664Z,8.95
2023-05-09T22:06:21.310Z,9.25
2023-05-09T22:08:51.173Z,8.40
2023-05-09T22:11:19.018Z,9.20
2023-05-09T22:13:46.979Z,8.18
2023-05-09T22:16:14.975Z,9.40
2023-05-09T22:18:43.003Z,8.60
2023-05-09T22:21:10.868Z,9.50
2023-05-09T22:23:40.255Z,9.20
2023-05-09T22:26:08.119Z,9.68
2023-05-09T22:28:36.017Z,9.15
2023-05-09T22:31:06.448Z,8.90
2023-05-09T22:33:34.397Z,9.40
2023-05-09T22:36:02.346Z,9.30
2023-05-09T22:38:30.263Z,9.90
2023-05-09T22:40:59.593Z,9.77
2023-05-09T22:43:33.829Z,9.88
2023-05-09T22:46:06.973Z,9.40
2023-05-09T22:48:34.973Z,9.52
2023-05-09T22:51:03.333Z,8.93
2023-05-09T22:53:32.739Z,8.82
2023-05-09T22:56:02.080Z,9.50
2023-05-09T22:58:29.994Z,7.63
2023-05-09T23:00:57.893Z,7.40
2023-05-09T23:03:25.911Z,7.88
2023-05-09T23:05:53.873Z,6.57
2023-05-09T23:08:21.765Z,6.68
2023-05-09T23:10:49.652Z,6.75
2023-05-09T23:13:19.035Z,6.68
2023-05-09T23:15:48.170Z,6.00
2023-05-09T23:18:16.182Z,6.10
2023-05-09T23:20:44.055Z,5.95
2023-05-09T23:23:12.002Z,6.68
2023-05-09T23:25:40.073Z,6.25
2023-05-09T23:28:08.064Z,6.30
2023-05-09T23:30:37.428Z,6.70
2023-05-09T23:33:05.525Z,6.60
2023-05-09T23:35:33.573Z,6.85
2023-05-09T23:38:01.529Z,6.43
2023-05-09T23:40:29.585Z,6.22
2023-05-09T23:42:57.487Z,5.53
2023-05-09T23:45:25.548Z,5.95
2023-05-09T23:47:54.896Z,6.43
2023-05-09T23:50:23.252Z,6.38
2023-05-09T23:52:51.262Z,6.00
2023-05-09T23:55:19.396Z,6.25
2023-05-09T23:57:47.384Z,6.22
